createdAt,value
2024-03-12T00:00:58.836Z,1.49
2024-03-12T00:01:58.858Z,1.16
2024-03-12T00:02:58.843Z,1.58
2024-03-12T00:03:58.913Z,1.43
2024-03-12T00:04:58.889Z,1.18
2024-03-12T00:05:58.908Z,1.25
2024-03-12T00:06:59.003Z,1.37
2024-03-12T00:07:58.959Z,1.37
2024-03-12T00:08:58.996Z,1.14
2024-03-12T00:09:59.054Z,1.14
2024-03-12T00:10:59.088Z,1.61
2024-03-12T00:11:59.066Z,1.18
2024-03-12T00:12:59.110Z,1.23
2024-03-12T00:13:59.116Z,1.15
2024-03-12T00:14:59.136Z,1.48
2024-03-12T00:15:59.228Z,1.25
2024-03-12T00:16:59.213Z,1.73
2024-03-12T00:17:59.248Z,1.39
2024-03-12T00:18:59.302Z,1.23
2024-03-12T00:19:59.298Z,1.23
2024-03-12T00:20:59.325Z,1.54
2024-03-12T00:21:59.412Z,1.53
2024-03-12T00:22:59.386Z,1.28
2024-03-12T00:23:59.420Z,1.39
2024-03-12T00:24:59.455Z,1.40
2024-03-12T00:25:59.514Z,1.54
2024-03-12T00:26:59.548Z,1.38
2024-03-12T00:27:59.611Z,1.59
2024-03-12T00:28:59.553Z,1.13
2024-03-12T00:29:59.596Z,1.58
2024-03-12T00:30:59.666Z,1.02
2024-03-12T00:31:59.634Z,1.14
2024-03-12T00:32:59.752Z,1.33
2024-03-12T00:33:59.704Z,0.99
2024-03-12T00:34:59.643Z,1.28
2024-03-12T00:35:59.645Z,1.46
2024-03-12T00:36:59.734Z,1.24
2024-03-12T00:37:59.642Z,1.56
2024-03-12T00:38:59.654Z,1.70
2024-03-12T00:39:59.680Z,1.46
2024-03-12T00:40:59.647Z,1.25
2024-03-12T00:41:59.675Z,1.11
2024-03-12T00:42:59.742Z,1.21
2024-03-12T00:43:59.676Z,1.13
2024-03-12T00:44:59.666Z,1.13
2024-03-12T00:45:59.657Z,1.53
2024-03-12T00:46:59.673Z,1.41
2024-03-12T00:47:59.670Z,1.11
2024-03-12T00:48:59.715Z,1.20
2024-03-12T00:49:59.904Z,1.15
2024-03-12T00:50:59.673Z,1.27
2024-03-12T00:51:59.701Z,1.24
2024-03-12T00:52:59.663Z,1.13
2024-03-12T00:53:59.685Z,0.99
2024-03-12T00:54:59.762Z,1.10
2024-03-12T00:55:59.682Z,1.29
2024-03-12T00:56:59.671Z,0.91
2024-03-12T00:58:00.038Z,1.31
2024-03-12T00:58:59.693Z,1.11
2024-03-12T00:59:59.693Z,1.30
2024-03-12T01:00:59.778Z,1.05
2024-03-12T01:01:59.727Z,1.12
2024-03-12T01:02:59.768Z,1.25
2024-03-12T01:03:59.742Z,1.47
2024-03-12T01:04:59.700Z,1.34
2024-03-12T01:05:59.697Z,1.18
2024-03-12T01:06:59.737Z,1.46
2024-03-12T01:07:59.710Z,1.42
2024-03-12T01:08:59.704Z,1.21
2024-03-12T01:09:59.736Z,0.93
2024-03-12T01:10:59.832Z,1.22
2024-03-12T01:11:59.726Z,1.14
2024-03-12T01:12:59.887Z,1.24
2024-03-12T01:13:59.793Z,1.31
2024-03-12T01:14:59.822Z,1.25
2024-03-12T01:15:59.895Z,0.86
2024-03-12T01:16:59.878Z,1.09
2024-03-12T01:17:59.921Z,0.89
2024-03-12T01:18:59.950Z,1.41
2024-03-12T01:19:59.968Z,1.17
2024-03-12T01:21:00.013Z,1.09
2024-03-12T01:22:00.087Z,1.28
2024-03-12T01:23:00.082Z,1.39
2024-03-12T01:24:00.146Z,1.47
2024-03-12T01:25:00.246Z,0.93
2024-03-12T01:26:00.136Z,1.26
2024-03-12T01:27:00.133Z,1.05
2024-03-12T01:28:00.180Z,1.11
2024-03-12T01:29:00.160Z,1.34
2024-03-12T01:30:00.185Z,1.24
2024-03-12T01:31:00.187Z,1.13
2024-03-12T01:32:00.139Z,1.10
2024-03-12T01:33:00.216Z,1.05
2024-03-12T01:34:00.217Z,1.11
2024-03-12T01:35:00.167Z,1.07
2024-03-12T01:36:00.171Z,1.02
2024-03-12T01:37:00.227Z,1.15
2024-03-12T01:38:00.176Z,1.01
2024-03-12T01:39:00.172Z,1.25
2024-03-12T01:40:00.352Z,0.92
2024-03-12T01:41:00.170Z,0.99
2024-03-12T01:42:00.174Z,1.24
2024-03-12T01:43:00.206Z,1.09
2024-03-12T01:44:00.170Z,1.13
2024-03-12T01:45:00.247Z,1.06
2024-03-12T01:46:00.257Z,1.35
2024-03-12T01:47:00.191Z,1.21
2024-03-12T01:48:00.298Z,1.23
2024-03-12T01:49:00.328Z,1.35
2024-03-12T01:50:00.203Z,1.12
2024-03-12T01:51:00.183Z,1.23
2024-03-12T01:52:00.309Z,1.08
2024-03-12T01:53:00.212Z,0.90
2024-03-12T01:54:00.295Z,1.63
2024-03-12T01:55:00.346Z,1.23
2024-03-12T01:56:00.330Z,1.27
2024-03-12T01:57:00.371Z,1.49
2024-03-12T01:58:00.449Z,1.22
2024-03-12T01:59:00.440Z,1.18
2024-03-12T02:00:00.502Z,1.25
2024-03-12T02:01:00.593Z,0.90
2024-03-12T02:02:00.567Z,1.23
2024-03-12T02:03:00.579Z,1.29
2024-03-12T02:04:00.699Z,1.17
2024-03-12T02:05:00.642Z,1.08
2024-03-12T02:06:00.714Z,0.92
2024-03-12T02:07:00.848Z,1.26
2024-03-12T02:08:00.749Z,1.33
2024-03-12T02:09:00.794Z,0.97
2024-03-12T02:10:01.068Z,1.04
2024-03-12T02:11:00.861Z,1.29
2024-03-12T02:12:00.893Z,1.08
2024-03-12T02:13:01.017Z,1.30
2024-03-12T02:14:00.980Z,0.97
2024-03-12T02:15:00.995Z,1.02
2024-03-12T02:16:01.102Z,1.10
2024-03-12T02:17:01.072Z,0.98
2024-03-12T02:18:01.157Z,1.10
2024-03-12T02:19:01.225Z,0.97
2024-03-12T02:20:01.101Z,1.05
2024-03-12T02:21:01.080Z,1.21
2024-03-12T02:22:01.180Z,1.30
2024-03-12T02:23:01.102Z,0.93
2024-03-12T02:24:01.095Z,1.20
2024-03-12T02:25:01.226Z,1.05
2024-03-12T02:26:01.094Z,0.86
2024-03-12T02:27:01.111Z,0.89
2024-03-12T02:28:01.137Z,1.11
2024-03-12T02:29:01.106Z,1.04
2024-03-12T02:30:01.169Z,1.01
2024-03-12T02:31:01.283Z,1.12
2024-03-12T02:32:01.109Z,0.93
2024-03-12T02:33:01.206Z,1.07
2024-03-12T02:34:01.269Z,0.98
2024-03-12T02:35:01.109Z,1.06
2024-03-12T02:36:01.132Z,1.21
2024-03-12T02:37:01.224Z,1.12
2024-03-12T02:38:01.112Z,1.03
2024-03-12T02:39:01.116Z,1.04
2024-03-12T02:40:01.152Z,0.67
2024-03-12T02:41:01.128Z,1.11
2024-03-12T02:42:01.136Z,1.54
2024-03-12T02:43:01.227Z,0.90
2024-03-12T02:44:01.133Z,1.06
2024-03-12T02:45:01.165Z,1.33
2024-03-12T02:46:01.204Z,0.83
2024-03-12T02:47:01.160Z,1.20
2024-03-12T02:48:01.185Z,0.93
2024-03-12T02:49:01.312Z,1.12
2024-03-12T02:50:01.164Z,1.05
2024-03-12T02:51:01.147Z,1.22
2024-03-12T02:52:01.247Z,1.04
2024-03-12T02:53:01.157Z,1.42
2024-03-12T02:54:01.187Z,1.10
2024-03-12T02:55:01.449Z,1.00
2024-03-12T02:56:01.268Z,1.13
2024-03-12T02:57:01.287Z,1.15
2024-03-12T02:58:01.363Z,1.28
2024-03-12T02:59:01.288Z,0.86
2024-03-12T03:00:01.433Z,0.91
2024-03-12T03:01:01.393Z,1.06
2024-03-12T03:02:01.345Z,0.98
2024-03-12T03:03:01.292Z,1.32
2024-03-12T03:04:01.364Z,1.30
2024-03-12T03:05:01.307Z,1.17
2024-03-12T03:06:01.343Z,1.00
2024-03-12T03:07:01.413Z,1.13
2024-03-12T03:08:01.302Z,0.87
2024-03-12T03:09:01.319Z,0.93
2024-03-12T03:10:01.539Z,1.21
2024-03-12T03:11:01.381Z,0.81
2024-03-12T03:12:01.342Z,1.11
2024-03-12T03:13:01.362Z,0.98
2024-03-12T03:14:01.358Z,1.08
2024-03-12T03:15:01.341Z,1.04
2024-03-12T03:16:01.355Z,1.00
2024-03-12T03:17:01.329Z,0.97
2024-03-12T03:18:01.382Z,1.03
2024-03-12T03:19:01.431Z,0.94
2024-03-12T03:20:01.333Z,0.97
2024-03-12T03:21:01.358Z,1.17
2024-03-12T03:22:01.430Z,0.80
2024-03-12T03:23:01.348Z,0.86
2024-03-12T03:24:01.377Z,0.91
2024-03-12T03:25:01.473Z,0.85
2024-03-12T03:26:01.346Z,1.15
2024-03-12T03:27:01.356Z,1.00
2024-03-12T03:28:01.402Z,0.72
2024-03-12T03:29:01.375Z,0.91
2024-03-12T03:30:01.483Z,1.62
2024-03-12T03:31:01.691Z,1.48
2024-03-12T03:32:01.428Z,1.11
2024-03-12T03:33:01.465Z,0.94
2024-03-12T03:34:01.534Z,1.03
2024-03-12T03:35:01.528Z,0.73
2024-03-12T03:36:01.533Z,0.83
2024-03-12T03:37:01.769Z,0.77
2024-03-12T03:38:01.621Z,0.91
2024-03-12T03:39:01.655Z,1.15
2024-03-12T03:40:01.738Z,0.85
2024-03-12T03:41:01.720Z,0.75
2024-03-12T03:42:01.783Z,1.15
2024-03-12T03:43:01.836Z,0.80
2024-03-12T03:44:01.849Z,0.90
2024-03-12T03:45:01.911Z,0.94
2024-03-12T03:46:01.957Z,0.81
2024-03-12T03:47:01.971Z,1.09
2024-03-12T03:48:02.021Z,0.84
2024-03-12T03:49:02.104Z,0.80
2024-03-12T03:50:02.095Z,1.03
2024-03-12T03:51:02.112Z,0.82
2024-03-12T03:52:02.260Z,1.03
2024-03-12T03:53:02.199Z,1.04
2024-03-12T03:54:02.253Z,1.00
2024-03-12T03:55:02.323Z,0.85
2024-03-12T03:56:02.302Z,0.84
2024-03-12T03:57:02.341Z,0.97
2024-03-12T03:58:02.460Z,1.10
2024-03-12T03:59:02.405Z,0.78
2024-03-12T04:00:02.453Z,1.14
2024-03-12T04:01:02.571Z,1.29
2024-03-12T04:02:02.575Z,1.11
2024-03-12T04:03:02.574Z,0.95
2024-03-12T04:04:02.611Z,0.69
2024-03-12T04:05:02.569Z,0.92
2024-03-12T04:06:02.566Z,0.78
2024-03-12T04:07:02.594Z,1.04
2024-03-12T04:08:02.583Z,0.74
2024-03-12T04:09:02.576Z,1.00
2024-03-12T04:10:02.622Z,0.96
2024-03-12T04:11:02.597Z,0.83
2024-03-12T04:12:02.589Z,0.87
2024-03-12T04:13:02.633Z,0.80
2024-03-12T04:14:02.595Z,1.13
2024-03-12T04:15:02.595Z,1.13
2024-03-12T04:16:02.618Z,0.99
2024-03-12T04:17:02.596Z,0.65
2024-03-12T04:18:02.652Z,1.21
2024-03-12T04:19:02.740Z,0.60
2024-03-12T04:20:02.601Z,0.98
2024-03-12T04:21:02.643Z,0.96
2024-03-12T04:22:02.675Z,1.11
2024-03-12T04:23:02.736Z,0.78
2024-03-12T04:24:02.769Z,1.01
2024-03-12T04:25:02.872Z,0.72
2024-03-12T04:26:02.826Z,1.04
2024-03-12T04:27:02.845Z,0.90
2024-03-12T04:28:02.947Z,0.90
2024-03-12T04:29:02.904Z,0.79
2024-03-12T04:30:02.857Z,1.28
2024-03-12T04:31:02.911Z,0.90
2024-03-12T04:32:02.859Z,0.85
2024-03-12T04:33:02.945Z,0.72
2024-03-12T04:34:02.976Z,0.93
2024-03-12T04:35:02.895Z,0.80
2024-03-12T04:36:02.883Z,1.24
2024-03-12T04:37:02.955Z,0.89
2024-03-12T04:38:02.888Z,0.70
2024-03-12T04:39:02.878Z,1.02
2024-03-12T04:40:02.963Z,0.67
2024-03-12T04:41:02.914Z,0.85
2024-03-12T04:42:02.917Z,0.69
2024-03-12T04:43:02.976Z,0.87
2024-03-12T04:44:10.555Z,1.19
2024-03-12T04:45:10.566Z,1.23
2024-03-12T04:46:10.611Z,1.13
2024-03-12T04:47:10.557Z,1.12
2024-03-12T04:48:10.601Z,0.86
2024-03-12T04:49:10.642Z,0.97
2024-03-12T04:50:10.577Z,1.15
2024-03-12T04:51:10.577Z,1.49
2024-03-12T04:52:10.617Z,0.78
2024-03-12T04:53:10.571Z,0.78
2024-03-12T04:54:10.579Z,1.09
2024-03-12T04:55:10.640Z,1.07
2024-03-12T04:56:10.583Z,1.00
2024-03-12T04:57:10.575Z,0.90
2024-03-12T04:58:10.615Z,1.01
2024-03-12T04:59:10.573Z,0.76
2024-03-12T05:00:10.587Z,0.78
2024-03-12T05:01:10.635Z,0.67
2024-03-12T05:02:10.578Z,0.86
2024-03-12T05:03:10.583Z,0.89
2024-03-12T05:04:15.795Z,0.99
2024-03-12T05:05:11.593Z,0.90
2024-03-12T05:06:10.606Z,0.98
2024-03-12T05:07:10.689Z,0.83
2024-03-12T05:08:10.586Z,0.70
2024-03-12T05:09:10.600Z,0.90
2024-03-12T05:10:10.643Z,0.91
2024-03-12T05:11:10.625Z,0.71
2024-03-12T05:12:10.603Z,0.74
2024-03-12T05:13:10.691Z,0.80
2024-03-12T05:14:10.620Z,1.14
2024-03-12T05:15:10.838Z,0.55
2024-03-12T05:16:10.675Z,0.97
2024-03-12T05:17:10.602Z,0.83
2024-03-12T05:18:10.678Z,0.96
2024-03-12T05:19:10.637Z,0.60
2024-03-12T05:20:10.845Z,0.99
2024-03-12T05:21:10.615Z,0.93
2024-03-12T05:22:10.703Z,0.65
2024-03-12T05:23:10.623Z,0.73
2024-03-12T05:24:10.632Z,1.09
2024-03-12T05:25:10.941Z,1.03
2024-03-12T05:26:10.663Z,1.19
2024-03-12T05:27:10.682Z,1.03
2024-03-12T05:28:11.219Z,0.94
2024-03-12T05:29:10.664Z,0.89
2024-03-12T05:30:10.678Z,0.92
2024-03-12T05:31:10.736Z,1.02
2024-03-12T05:32:10.699Z,0.94
2024-03-12T05:33:10.786Z,0.83
2024-03-12T05:34:10.705Z,0.72
2024-03-12T05:35:10.683Z,0.81
2024-03-12T05:36:10.883Z,0.94
2024-03-12T05:37:10.706Z,0.79
2024-03-12T05:38:10.720Z,0.98
2024-03-12T05:39:10.712Z,0.70
2024-03-12T05:40:10.742Z,0.85
2024-03-12T05:41:10.698Z,0.70
2024-03-12T05:42:10.708Z,0.77
2024-03-12T05:43:10.785Z,0.93
2024-03-12T05:44:10.744Z,0.62
2024-03-12T05:45:10.792Z,0.75
2024-03-12T05:46:10.807Z,0.82
2024-03-12T05:47:10.870Z,0.89
2024-03-12T05:48:11.146Z,0.93
2024-03-12T05:49:11.177Z,0.97
2024-03-12T05:50:10.905Z,1.05
2024-03-12T05:51:10.916Z,0.72
2024-03-12T05:52:11.030Z,1.06
2024-03-12T05:53:10.978Z,1.11
2024-03-12T05:54:11.087Z,0.79
2024-03-12T05:55:11.090Z,0.98
2024-03-12T05:56:13.438Z,0.85
2024-03-12T05:57:11.082Z,0.79
2024-03-12T05:58:11.087Z,1.02
2024-03-12T05:59:11.084Z,0.92
2024-03-12T06:00:11.124Z,1.15
2024-03-12T06:01:11.185Z,0.84
2024-03-12T06:02:11.133Z,0.79
2024-03-12T06:03:11.090Z,0.66
2024-03-12T06:04:11.152Z,0.65
2024-03-12T06:05:11.095Z,0.75
2024-03-12T06:06:11.103Z,0.83
2024-03-12T06:07:11.174Z,0.87
2024-03-12T06:08:11.120Z,0.88
2024-03-12T06:09:11.113Z,0.80
2024-03-12T06:10:11.434Z,0.60
2024-03-12T06:11:11.167Z,0.87
2024-03-12T06:12:11.106Z,0.94
2024-03-12T06:13:11.178Z,0.69
2024-03-12T06:14:11.109Z,1.02
2024-03-12T06:15:11.130Z,0.88
2024-03-12T06:16:11.189Z,1.09
2024-03-12T06:17:11.110Z,0.72
2024-03-12T06:18:11.139Z,1.12
2024-03-12T06:19:11.236Z,0.94
2024-03-12T06:20:11.690Z,0.66
2024-03-12T06:21:11.117Z,0.90
2024-03-12T06:22:11.182Z,0.88
2024-03-12T06:23:11.123Z,0.72
2024-03-12T06:24:11.135Z,1.05
2024-03-12T06:25:11.314Z,0.84
2024-03-12T06:26:11.137Z,0.73
2024-03-12T06:27:11.134Z,0.83
2024-03-12T06:28:11.271Z,0.69
2024-03-12T06:29:11.148Z,0.87
2024-03-12T06:30:11.164Z,0.90
2024-03-12T06:31:11.175Z,0.92
2024-03-12T06:32:11.144Z,0.99
2024-03-12T06:33:11.159Z,0.76
2024-03-12T06:34:11.196Z,0.92
2024-03-12T06:35:11.197Z,0.96
2024-03-12T06:36:11.158Z,0.88
2024-03-12T06:37:11.212Z,1.16
2024-03-12T06:38:11.157Z,1.36
2024-03-12T06:39:11.165Z,0.92
2024-03-12T06:40:11.262Z,1.39
2024-03-12T06:41:11.161Z,1.95
2024-03-12T06:42:11.187Z,1.62
2024-03-12T06:43:11.263Z,1.90
2024-03-12T06:44:11.187Z,1.65
2024-03-12T06:45:11.205Z,1.64
2024-03-12T06:46:11.442Z,1.73
2024-03-12T06:47:11.327Z,2.03
2024-03-12T06:48:11.206Z,1.71
2024-03-12T06:49:11.312Z,1.49
2024-03-12T06:50:11.329Z,2.54
2024-03-12T06:51:11.330Z,1.99
2024-03-12T06:52:11.383Z,1.88
2024-03-12T06:53:11.365Z,2.03
2024-03-12T06:54:11.391Z,2.09
2024-03-12T06:55:13.771Z,2.58
2024-03-12T06:56:11.438Z,2.19
2024-03-12T06:57:11.423Z,2.44
2024-03-12T06:58:11.517Z,2.10
2024-03-12T06:59:11.438Z,1.86
2024-03-12T07:00:11.432Z,2.20
2024-03-12T07:01:11.544Z,1.92
2024-03-12T07:02:11.512Z,1.70
2024-03-12T07:03:11.418Z,1.40
2024-03-12T07:04:11.508Z,1.62
2024-03-12T07:05:11.416Z,1.78
2024-03-12T07:06:11.446Z,2.08
2024-03-12T07:07:11.477Z,1.51
2024-03-12T07:08:11.460Z,1.86
2024-03-12T07:09:13.750Z,1.57
2024-03-12T07:10:11.605Z,1.68
2024-03-12T07:11:11.478Z,1.59
2024-03-12T07:12:11.439Z,1.62
2024-03-12T07:13:11.592Z,0.94
2024-03-12T07:14:11.443Z,1.29
2024-03-12T07:15:11.444Z,1.23
2024-03-12T07:16:11.852Z,1.34
2024-03-12T07:17:11.557Z,1.18
2024-03-12T07:18:11.497Z,1.13
2024-03-12T07:19:11.500Z,1.15
2024-03-12T07:20:11.469Z,1.66
2024-03-12T07:21:11.479Z,1.90
2024-03-12T07:22:11.541Z,1.62
2024-03-12T07:23:11.491Z,1.35
2024-03-12T07:24:11.473Z,1.49
2024-03-12T07:25:11.511Z,1.25
2024-03-12T07:26:11.485Z,1.32
2024-03-12T07:27:11.494Z,1.63
2024-03-12T07:28:11.644Z,1.19
2024-03-12T07:29:11.499Z,1.41
2024-03-12T07:30:11.482Z,0.92
2024-03-12T07:31:11.576Z,1.59
2024-03-12T07:32:11.580Z,1.53
2024-03-12T07:33:11.698Z,2.28
2024-03-12T07:34:11.780Z,2.29
2024-03-12T07:35:11.754Z,2.34
2024-03-12T07:36:11.810Z,1.84
2024-03-12T07:37:11.976Z,2.23
2024-03-12T07:38:11.864Z,1.87
2024-03-12T07:39:11.899Z,1.96
2024-03-12T07:40:11.951Z,2.04
2024-03-12T07:41:11.936Z,1.68
2024-03-12T07:42:15.065Z,1.73
2024-03-12T07:43:12.042Z,1.55
2024-03-12T07:44:11.968Z,1.63
2024-03-12T07:45:11.966Z,1.58
2024-03-12T07:46:12.041Z,1.81
2024-03-12T07:47:12.008Z,1.52
2024-03-12T07:48:12.006Z,1.49
2024-03-12T07:49:12.706Z,1.30
2024-03-12T07:50:11.977Z,1.61
2024-03-12T07:51:11.984Z,1.74
2024-03-12T07:52:12.032Z,1.65
2024-03-12T07:53:12.021Z,1.13
2024-03-12T07:54:11.984Z,1.40
2024-03-12T07:55:12.018Z,1.42
2024-03-12T07:56:11.995Z,1.31
2024-03-12T07:57:12.006Z,1.22
2024-03-12T07:58:12.124Z,1.66
2024-03-12T07:59:12.019Z,1.26
2024-03-12T08:00:12.064Z,1.48
2024-03-12T08:01:12.285Z,1.35
2024-03-12T08:02:12.176Z,1.83
2024-03-12T08:03:12.170Z,0.99
2024-03-12T08:04:12.251Z,1.30
2024-03-12T08:05:12.338Z,1.75
2024-03-12T08:06:12.169Z,1.60
2024-03-12T08:07:12.301Z,1.26
2024-03-12T08:08:12.176Z,1.09
2024-03-12T08:09:12.183Z,1.70
2024-03-12T08:10:12.292Z,0.89
2024-03-12T08:11:12.303Z,1.41
2024-03-12T08:12:14.183Z,1.33
2024-03-12T08:13:12.335Z,1.47
2024-03-12T08:14:12.321Z,1.18
2024-03-12T08:15:12.320Z,1.31
2024-03-12T08:16:12.347Z,1.39
2024-03-12T08:17:12.367Z,1.51
2024-03-12T08:18:17.500Z,1.55
2024-03-12T08:19:13.496Z,1.37
2024-03-12T08:20:12.389Z,1.44
2024-03-12T08:21:12.379Z,1.13
2024-03-12T08:22:12.462Z,1.58
2024-03-12T08:23:12.368Z,1.34
2024-03-12T08:24:12.459Z,1.40
2024-03-12T08:25:12.764Z,1.46
2024-03-12T08:26:12.385Z,2.03
2024-03-12T08:27:12.403Z,1.51
2024-03-12T08:28:12.416Z,1.28
2024-03-12T08:29:12.390Z,1.17
2024-03-12T08:30:12.387Z,1.65
2024-03-12T08:32:12.436Z,1.71
2024-03-12T08:33:12.414Z,1.33
2024-03-12T08:34:12.430Z,1.45
2024-03-12T08:35:12.439Z,1.47
2024-03-12T08:36:12.533Z,2.25
2024-03-12T08:37:12.447Z,3.21
2024-03-12T08:38:12.502Z,4.26
2024-03-12T08:39:12.592Z,2.55
2024-03-12T08:40:12.761Z,2.07
2024-03-12T08:41:12.713Z,2.84
2024-03-12T08:42:12.753Z,2.63
2024-03-12T08:43:12.798Z,2.54
2024-03-12T08:44:12.801Z,2.58
2024-03-12T08:45:12.890Z,1.85
2024-03-12T08:46:12.942Z,1.72
2024-03-12T08:47:12.923Z,1.52
2024-03-12T08:48:12.976Z,1.54
2024-03-12T08:49:13.109Z,1.05
2024-03-12T08:50:13.068Z,1.46
2024-03-12T08:51:12.984Z,1.55
2024-03-12T08:52:13.020Z,1.39
2024-03-12T08:53:15.954Z,1.84
2024-03-12T08:54:13.019Z,1.29
2024-03-12T08:55:13.084Z,1.40
2024-03-12T08:56:13.025Z,1.23
2024-03-12T08:57:13.028Z,1.77
2024-03-12T08:58:13.099Z,1.64
2024-03-12T08:59:13.035Z,1.43
2024-03-12T09:00:13.038Z,1.59
2024-03-12T09:01:13.094Z,1.53
2024-03-12T09:02:13.096Z,1.13
2024-03-12T09:03:13.080Z,1.23
2024-03-12T09:04:13.158Z,1.56
2024-03-12T09:05:13.051Z,1.53
2024-03-12T09:06:13.038Z,1.60
2024-03-12T09:07:13.132Z,1.42
2024-03-12T09:08:13.050Z,1.47
2024-03-12T09:09:13.045Z,1.35
2024-03-12T09:10:13.434Z,1.17
2024-03-12T09:11:13.134Z,1.14
2024-03-12T09:12:13.066Z,1.51
2024-03-12T09:13:13.243Z,1.20
2024-03-12T09:14:13.070Z,1.21
2024-03-12T09:15:13.090Z,0.95
2024-03-12T09:16:13.220Z,1.05
2024-03-12T09:17:13.069Z,1.17
2024-03-12T09:18:13.162Z,1.11
2024-03-12T09:19:13.107Z,1.05
2024-03-12T09:20:13.077Z,1.30
2024-03-12T09:21:13.095Z,1.49
2024-03-12T09:22:13.250Z,1.40
2024-03-12T09:23:13.064Z,1.08
2024-03-12T09:24:13.123Z,1.27
2024-03-12T09:25:14.171Z,1.13
2024-03-12T09:26:13.231Z,1.32
2024-03-12T09:27:13.296Z,1.13
2024-03-12T09:28:13.511Z,1.15
2024-03-12T09:29:13.455Z,1.37
2024-03-12T09:30:13.534Z,1.17
2024-03-12T09:31:13.751Z,1.38
2024-03-12T09:32:13.668Z,1.26
2024-03-12T09:33:13.763Z,1.56
2024-03-12T09:34:13.959Z,1.30
2024-03-12T09:35:13.831Z,1.45
2024-03-12T09:36:13.897Z,1.37
2024-03-12T09:37:14.001Z,1.22
2024-03-12T09:38:14.008Z,1.43
2024-03-12T09:39:14.097Z,1.13
2024-03-12T09:40:14.223Z,1.64
2024-03-12T09:41:14.266Z,1.11
2024-03-12T09:42:14.247Z,1.23
2024-03-12T09:43:14.377Z,1.64
2024-03-12T09:44:14.402Z,1.41
2024-03-12T09:45:14.420Z,1.98
2024-03-12T09:46:14.532Z,1.22
2024-03-12T09:47:14.564Z,1.26
2024-03-12T09:48:14.591Z,1.28
2024-03-12T09:49:14.938Z,1.80
2024-03-12T09:50:14.734Z,1.74
2024-03-12T09:51:14.783Z,1.73
2024-03-12T09:52:14.803Z,1.75
2024-03-12T09:53:14.800Z,1.33
2024-03-12T09:54:14.789Z,1.51
2024-03-12T09:55:14.838Z,1.69
2024-03-12T09:56:14.793Z,1.63
2024-03-12T09:57:14.831Z,1.49
2024-03-12T09:58:14.875Z,1.45
2024-03-12T09:59:14.796Z,1.16
2024-03-12T10:00:14.806Z,1.47
2024-03-12T10:01:14.893Z,0.83
2024-03-12T10:02:14.837Z,1.42
2024-03-12T10:03:14.805Z,1.18
2024-03-12T10:04:14.877Z,1.76
2024-03-12T10:05:14.806Z,1.18
2024-03-12T10:06:14.823Z,1.31
2024-03-12T10:07:14.883Z,1.04
2024-03-12T10:08:15.059Z,1.08
2024-03-12T10:09:14.818Z,1.66
2024-03-12T10:10:14.878Z,1.49
2024-03-12T10:11:14.825Z,1.34
2024-03-12T10:12:14.822Z,1.21
2024-03-12T10:13:14.888Z,1.24
2024-03-12T10:14:14.830Z,1.39
2024-03-12T10:15:14.837Z,1.37
2024-03-12T10:16:14.930Z,1.52
2024-03-12T10:17:14.961Z,1.53
2024-03-12T10:18:14.957Z,1.42
2024-03-12T10:19:15.048Z,2.01
2024-03-12T10:20:15.020Z,1.95
2024-03-12T10:21:15.065Z,1.74
2024-03-12T10:22:15.119Z,1.74
2024-03-12T10:23:15.110Z,2.40
2024-03-12T10:24:15.132Z,2.23
2024-03-12T10:25:15.212Z,2.04
2024-03-12T10:26:15.182Z,1.93
2024-03-12T10:27:15.139Z,1.73
2024-03-12T10:28:15.148Z,2.41
2024-03-12T10:29:15.146Z,2.12
2024-03-12T10:30:15.149Z,1.74
2024-03-12T10:31:16.465Z,1.76
2024-03-12T10:32:15.160Z,2.01
2024-03-12T10:33:15.176Z,2.96
2024-03-12T10:34:15.213Z,1.59
2024-03-12T10:35:15.166Z,2.24
2024-03-12T10:36:15.192Z,2.16
2024-03-12T10:37:15.295Z,1.82
2024-03-12T10:38:15.174Z,1.80
2024-03-12T10:39:15.980Z,1.56
2024-03-12T10:40:15.312Z,1.24
2024-03-12T10:41:15.307Z,1.87
2024-03-12T10:42:15.369Z,2.31
2024-03-12T10:43:15.424Z,1.33
2024-03-12T10:44:15.444Z,1.26
2024-03-12T10:45:15.478Z,1.63
2024-03-12T10:46:15.581Z,1.64
2024-03-12T10:47:15.549Z,1.68
2024-03-12T10:48:15.658Z,3.65
2024-03-12T10:49:15.768Z,1.68
2024-03-12T10:50:15.744Z,2.28
2024-03-12T10:51:15.961Z,2.64
2024-03-12T10:52:15.937Z,1.73
2024-03-12T10:53:15.918Z,2.49
2024-03-12T10:54:15.927Z,2.38
2024-03-12T10:55:16.076Z,2.24
2024-03-12T10:56:16.375Z,2.46
2024-03-12T10:57:15.936Z,2.23
2024-03-12T10:58:15.959Z,2.15
2024-03-12T10:59:15.937Z,1.74
2024-03-12T11:00:15.960Z,2.45
2024-03-12T11:01:16.175Z,2.00
2024-03-12T11:02:15.996Z,2.22
2024-03-12T11:03:15.943Z,2.02
2024-03-12T11:04:15.991Z,1.92
2024-03-12T11:05:16.131Z,1.50
2024-03-12T11:06:15.981Z,2.25
2024-03-12T11:07:16.004Z,2.07
2024-03-12T11:08:16.010Z,2.05
2024-03-12T11:09:15.973Z,2.09
2024-03-12T11:10:16.020Z,1.44
2024-03-12T11:11:16.011Z,1.73
2024-03-12T11:12:15.963Z,1.93
2024-03-12T11:13:16.028Z,1.40
2024-03-12T11:14:15.955Z,1.89
2024-03-12T11:15:16.058Z,1.39
2024-03-12T11:16:16.032Z,1.99
2024-03-12T11:17:15.971Z,1.29
2024-03-12T11:18:16.054Z,1.60
2024-03-12T11:19:16.120Z,1.55
2024-03-12T11:20:16.150Z,1.59
2024-03-12T11:21:16.230Z,1.57
2024-03-12T11:22:16.299Z,1.73
2024-03-12T11:23:16.318Z,2.33
2024-03-12T11:24:16.386Z,2.03
2024-03-12T11:25:16.515Z,1.34
2024-03-12T11:26:16.494Z,0.92
2024-03-12T11:27:16.538Z,1.35
2024-03-12T11:28:16.592Z,1.55
2024-03-12T11:29:16.666Z,2.14
2024-03-12T11:30:16.736Z,1.77
2024-03-12T11:31:16.805Z,1.41
2024-03-12T11:32:16.802Z,1.68
2024-03-12T11:33:16.847Z,1.89
2024-03-12T11:34:16.928Z,1.53
2024-03-12T11:35:16.958Z,1.76
2024-03-12T11:36:16.961Z,2.67
2024-03-12T11:37:17.050Z,2.21
2024-03-12T11:38:17.431Z,1.74
2024-03-12T11:39:17.138Z,2.91
2024-03-12T11:40:17.125Z,2.29
2024-03-12T11:41:17.136Z,2.07
2024-03-12T11:42:17.162Z,2.89
2024-03-12T11:43:17.187Z,3.00
2024-03-12T11:44:17.178Z,2.67
2024-03-12T11:45:17.196Z,3.26
2024-03-12T11:46:17.372Z,4.27
2024-03-12T11:47:17.160Z,2.88
2024-03-12T11:48:17.202Z,3.15
2024-03-12T11:49:17.193Z,3.62
2024-03-12T11:50:17.168Z,3.94
2024-03-12T11:51:17.190Z,3.78
2024-03-12T11:52:17.193Z,2.99
2024-03-12T11:53:17.191Z,3.17
2024-03-12T11:54:17.234Z,3.81
2024-03-12T11:55:17.251Z,4.40
2024-03-12T11:56:17.302Z,4.65
2024-03-12T11:57:17.199Z,6.62
2024-03-12T11:58:17.243Z,3.67
2024-03-12T11:59:20.162Z,3.31
2024-03-12T12:00:17.212Z,3.47
2024-03-12T12:01:17.254Z,2.26
2024-03-12T12:02:17.193Z,2.93
2024-03-12T12:03:17.216Z,2.97
2024-03-12T12:04:17.312Z,2.47
2024-03-12T12:05:17.201Z,2.16
2024-03-12T12:06:17.206Z,3.41
2024-03-12T12:07:17.342Z,1.25
2024-03-12T12:08:17.221Z,2.04
2024-03-12T12:09:17.201Z,2.42
2024-03-12T12:10:17.473Z,1.94
2024-03-12T12:11:17.410Z,3.15
2024-03-12T12:12:17.214Z,2.23
2024-03-12T12:13:17.364Z,1.75
2024-03-12T12:14:17.210Z,2.16
2024-03-12T12:15:17.218Z,1.94
2024-03-12T12:16:17.325Z,1.63
2024-03-12T12:17:17.213Z,2.43
2024-03-12T12:18:17.223Z,2.06
2024-03-12T12:19:22.170Z,2.13
2024-03-12T12:20:18.259Z,2.09
2024-03-12T12:21:17.232Z,1.73
2024-03-12T12:22:17.486Z,2.25
2024-03-12T12:23:17.224Z,1.53
2024-03-12T12:24:17.236Z,1.48
2024-03-12T12:25:17.414Z,1.45
2024-03-12T12:26:17.231Z,2.14
2024-03-12T12:27:17.233Z,1.97
2024-03-12T12:28:17.288Z,2.65
2024-03-12T12:29:17.241Z,1.55
2024-03-12T12:30:17.250Z,2.33
2024-03-12T12:31:17.317Z,1.15
2024-03-12T12:32:17.265Z,1.58
2024-03-12T12:33:17.246Z,1.29
2024-03-12T12:34:17.305Z,1.60
2024-03-12T12:35:17.263Z,1.65
2024-03-12T12:36:17.260Z,2.25
2024-03-12T12:37:17.355Z,1.72
2024-03-12T12:38:17.258Z,1.03
2024-03-12T12:39:17.264Z,1.52
2024-03-12T12:40:17.363Z,1.43
2024-03-12T12:41:17.260Z,1.28
2024-03-12T12:42:17.272Z,1.83
2024-03-12T12:43:17.329Z,1.70
2024-03-12T12:44:18.719Z,1.29
2024-03-12T12:45:17.287Z,1.34
2024-03-12T12:46:17.351Z,1.22
2024-03-12T12:47:17.275Z,1.50
2024-03-12T12:48:17.337Z,0.94
2024-03-12T12:49:17.315Z,1.53
2024-03-12T12:50:17.300Z,0.91
2024-03-12T12:51:17.290Z,1.59
2024-03-12T12:52:17.399Z,1.30
2024-03-12T12:53:17.302Z,0.94
2024-03-12T12:54:17.373Z,1.38
2024-03-12T12:55:17.357Z,1.11
2024-03-12T12:56:17.294Z,0.97
2024-03-12T12:57:17.301Z,0.55
2024-03-12T12:58:17.363Z,1.01
2024-03-12T12:59:17.300Z,1.29
2024-03-12T13:00:17.302Z,0.92
2024-03-12T13:01:17.450Z,1.12
2024-03-12T13:02:17.319Z,1.00
2024-03-12T13:03:17.426Z,0.97
2024-03-12T13:04:17.384Z,1.50
2024-03-12T13:05:17.316Z,0.67
2024-03-12T13:06:17.366Z,1.17
2024-03-12T13:07:17.446Z,0.92
2024-03-12T13:08:17.313Z,1.18
2024-03-12T13:09:17.314Z,1.19
2024-03-12T13:10:17.389Z,1.16
2024-03-12T13:11:17.345Z,1.06
2024-03-12T13:12:17.323Z,1.18
2024-03-12T13:13:17.451Z,0.96
2024-03-12T13:14:17.324Z,0.73
2024-03-12T13:15:17.343Z,1.13
2024-03-12T13:16:17.455Z,0.88
2024-03-12T13:17:17.326Z,0.86
2024-03-12T13:18:17.386Z,0.83
2024-03-12T13:19:17.413Z,0.89
2024-03-12T13:20:17.355Z,1.06